06C

Schaumburg Regional Airport

Chicago/Schaumburg, Illinois, USA
METAR K06C 172315Z AUTO 01006KT 10SM OVC025 00/M02 A3030 RMK AO2 T00001020
Observed Flight Rules
Nov-17 @ 23:15 UTC (22 minutes ago) Marginal Visual Flight Rules
Wind Visibility Clouds
10° at 6 knots 10 miles
  • Overcast at 2,500' AGL
Temperatures Readings
Current 0°C / 32°F
Dewpoint -2°C / 28°F
Humidity 87%
Altimeter 30.3" Hg
Pressure 1026 hPa
Elevation 244
METAR K06C 172315Z AUTO 01006KT 10SM OVC025 00/M02 A3030 RMK AO2 T00001020
Observed Flight Rules
Nov-17 @ 23:15 UTC
(22 minutes ago)
MVFR
Wind Visibility
10° at 6 knots 10 miles
Clouds
  • Overcast at 2,500' AGL
Temperature Dewpoint
0°C / 32°F -2°C / 28°F
Humidity Altimeter Pressure
87% 30.3" Hg 1026 hPa